sensor_id;sensor_type;location;lat;lon;timestamp;P1;durP1;ratioP1;P2;durP2;ratioP2
20794;SDS011;28087;-33.874;151.240;2024-02-14T00:01:03;4.63;;;1.52;;
20794;SDS011;28087;-33.874;151.240;2024-02-14T00:04:10;5.13;;;1.73;;
20794;SDS011;28087;-33.874;151.240;2024-02-14T00:07:16;4.75;;;1.50;;
20794;SDS011;28087;-33.874;151.240;2024-02-14T00:10:22;7.90;;;2.20;;
20794;SDS011;28087;-33.874;151.240;2024-02-14T00:13:30;11.13;;;3.20;;
20794;SDS011;28087;-33.874;151.240;2024-02-14T00:16:36;8.40;;;2.30;;
20794;SDS011;28087;-33.874;151.240;2024-02-14T00:19:42;7.88;;;2.30;;
20794;SDS011;28087;-33.874;151.240;2024-02-14T00:22:56;5.82;;;2.15;;
20794;SDS011;28087;-33.874;151.240;2024-02-14T00:26:03;6.85;;;1.88;;
20794;SDS011;28087;-33.874;151.240;2024-02-14T00:29:10;6.65;;;2.05;;
20794;SDS011;28087;-33.874;151.240;2024-02-14T00:32:17;5.15;;;1.90;;
20794;SDS011;28087;-33.874;151.240;2024-02-14T00:35:24;9.30;;;2.40;;
20794;SDS011;28087;-33.874;151.240;2024-02-14T00:38:30;5.95;;;1.92;;
20794;SDS011;28087;-33.874;151.240;2024-02-14T00:41:37;6.00;;;2.03;;
20794;SDS011;28087;-33.874;151.240;2024-02-14T00:44:46;7.35;;;2.22;;
20794;SDS011;28087;-33.874;151.240;2024-02-14T00:47:53;10.88;;;2.50;;
20794;SDS011;28087;-33.874;151.240;2024-02-14T00:51:02;5.55;;;1.90;;
20794;SDS011;28087;-33.874;151.240;2024-02-14T00:54:08;8.80;;;1.90;;
20794;SDS011;28087;-33.874;151.240;2024-02-14T00:57:14;5.95;;;1.77;;
20794;SDS011;28087;-33.874;151.240;2024-02-14T01:00:23;4.55;;;1.40;;
20794;SDS011;28087;-33.874;151.240;2024-02-14T01:03:32;7.32;;;1.60;;
20794;SDS011;28087;-33.874;151.240;2024-02-14T01:06:39;5.07;;;1.40;;
20794;SDS011;28087;-33.874;151.240;2024-02-14T01:09:47;3.78;;;1.30;;
20794;SDS011;28087;-33.874;151.240;2024-02-14T01:12:53;4.75;;;1.52;;
20794;SDS011;28087;-33.874;151.240;2024-02-14T01:16:02;4.43;;;1.40;;
20794;SDS011;28087;-33.874;151.240;2024-02-14T01:19:10;4.03;;;1.48;;
20794;SDS011;28087;-33.874;151.240;2024-02-14T01:22:17;7.03;;;2.03;;
20794;SDS011;28087;-33.874;151.240;2024-02-14T01:25:29;5.35;;;1.75;;
20794;SDS011;28087;-33.874;151.240;2024-02-14T01:28:35;5.63;;;2.10;;
20794;SDS011;28087;-33.874;151.240;2024-02-14T01:31:43;6.63;;;1.80;;
20794;SDS011;28087;-33.874;151.240;2024-02-14T01:34:49;7.85;;;2.35;;
20794;SDS011;28087;-33.874;151.240;2024-02-14T01:37:56;7.03;;;1.77;;
20794;SDS011;28087;-33.874;151.240;2024-02-14T01:41:03;8.02;;;2.10;;
20794;SDS011;28087;-33.874;151.240;2024-02-14T01:44:09;10.15;;;2.10;;
20794;SDS011;28087;-33.874;151.240;2024-02-14T01:47:19;8.77;;;2.00;;
20794;SDS011;28087;-33.874;151.240;2024-02-14T01:50:29;5.18;;;1.50;;
20794;SDS011;28087;-33.874;151.240;2024-02-14T01:53:30;4.15;;;1.38;;
20794;SDS011;28087;-33.874;151.240;2024-02-14T01:56:31;3.70;;;1.30;;
20794;SDS011;28087;-33.874;151.240;2024-02-14T01:59:41;4.97;;;1.40;;
20794;SDS011;28087;-33.874;151.240;2024-02-14T02:03:06;6.43;;;1.33;;
20794;SDS011;28087;-33.874;151.240;2024-02-14T02:06:13;3.70;;;1.30;;
20794;SDS011;28087;-33.874;151.240;2024-02-14T02:09:26;5.53;;;1.45;;
20794;SDS011;28087;-33.874;151.240;2024-02-14T02:12:32;10.40;;;1.90;;
20794;SDS011;28087;-33.874;151.240;2024-02-14T02:16:00;10.52;;;2.10;;
20794;SDS011;28087;-33.874;151.240;2024-02-14T02:19:38;10.70;;;1.80;;
20794;SDS011;28087;-33.874;151.240;2024-02-14T02:22:47;10.90;;;2.72;;
20794;SDS011;28087;-33.874;151.240;2024-02-14T02:25:52;10.25;;;2.50;;
20794;SDS011;28087;-33.874;151.240;2024-02-14T02:29:19;12.77;;;3.00;;
20794;SDS011;28087;-33.874;151.240;2024-02-14T02:32:27;16.15;;;3.35;;
20794;SDS011;28087;-33.874;151.240;2024-02-14T02:35:35;16.60;;;3.10;;
20794;SDS011;28087;-33.874;151.240;2024-02-14T02:39:03;18.08;;;3.47;;
20794;SDS011;28087;-33.874;151.240;2024-02-14T02:42:29;16.17;;;3.80;;
20794;SDS011;28087;-33.874;151.240;2024-02-14T02:45:57;17.33;;;3.90;;
20794;SDS011;28087;-33.874;151.240;2024-02-14T02:49:38;20.30;;;4.22;;
20794;SDS011;28087;-33.874;151.240;2024-02-14T02:53:04;26.45;;;4.72;;
20794;SDS011;28087;-33.874;151.240;2024-02-14T02:56:32;20.75;;;4.70;;
20794;SDS011;28087;-33.874;151.240;2024-02-14T02:59:39;21.45;;;4.40;;
20794;SDS011;28087;-33.874;151.240;2024-02-14T03:02:53;24.75;;;4.75;;
20794;SDS011;28087;-33.874;151.240;2024-02-14T03:06:12;22.55;;;4.85;;
20794;SDS011;28087;-33.874;151.240;2024-02-14T03:09:28;31.75;;;6.07;;
20794;SDS011;28087;-33.874;151.240;2024-02-14T03:12:50;31.10;;;5.32;;
20794;SDS011;28087;-33.874;151.240;2024-02-14T03:16:20;30.42;;;6.00;;
20794;SDS011;28087;-33.874;151.240;2024-02-14T03:19:27;25.90;;;5.57;;
20794;SDS011;28087;-33.874;151.240;2024-02-14T03:22:37;31.45;;;5.90;;
20794;SDS011;28087;-33.874;151.240;2024-02-14T03:25:44;27.38;;;5.10;;
20794;SDS011;28087;-33.874;151.240;2024-02-14T03:28:52;27.42;;;5.03;;
20794;SDS011;28087;-33.874;151.240;2024-02-14T03:31:57;32.22;;;5.38;;
20794;SDS011;28087;-33.874;151.240;2024-02-14T03:35:04;25.27;;;5.05;;
20794;SDS011;28087;-33.874;151.240;2024-02-14T03:38:10;35.53;;;6.63;;
20794;SDS011;28087;-33.874;151.240;2024-02-14T03:41:17;32.40;;;5.85;;
20794;SDS011;28087;-33.874;151.240;2024-02-14T03:44:26;26.70;;;5.70;;
20794;SDS011;28087;-33.874;151.240;2024-02-14T03:47:33;27.33;;;5.38;;
20794;SDS011;28087;-33.874;151.240;2024-02-14T03:50:40;25.23;;;5.28;;
20794;SDS011;28087;-33.874;151.240;2024-02-14T03:53:46;28.77;;;5.22;;
20794;SDS011;28087;-33.874;151.240;2024-02-14T03:56:53;22.55;;;4.80;;
20794;SDS011;28087;-33.874;151.240;2024-02-14T04:00:02;24.20;;;4.90;;
20794;SDS011;28087;-33.874;151.240;2024-02-14T04:03:11;25.52;;;4.68;;
20794;SDS011;28087;-33.874;151.240;2024-02-14T04:06:17;24.23;;;5.60;;
20794;SDS011;28087;-33.874;151.240;2024-02-14T04:09:27;29.35;;;5.75;;
20794;SDS011;28087;-33.874;151.240;2024-02-14T04:12:34;25.00;;;5.28;;
20794;SDS011;28087;-33.874;151.240;2024-02-14T04:15:43;26.70;;;5.07;;
20794;SDS011;28087;-33.874;151.240;2024-02-14T04:18:58;31.05;;;6.10;;
20794;SDS011;28087;-33.874;151.240;2024-02-14T04:22:07;25.80;;;4.95;;
20794;SDS011;28087;-33.874;151.240;2024-02-14T04:25:14;27.17;;;5.22;;
20794;SDS011;28087;-33.874;151.240;2024-02-14T04:28:21;29.25;;;5.63;;
20794;SDS011;28087;-33.874;151.240;2024-02-14T04:31:28;24.80;;;5.00;;
20794;SDS011;28087;-33.874;151.240;2024-02-14T04:34:34;34.00;;;5.80;;
20794;SDS011;28087;-33.874;151.240;2024-02-14T04:37:51;30.63;;;5.18;;
20794;SDS011;28087;-33.874;151.240;2024-02-14T04:40:57;32.15;;;6.35;;
20794;SDS011;28087;-33.874;151.240;2024-02-14T04:44:05;31.73;;;6.00;;
20794;SDS011;28087;-33.874;151.240;2024-02-14T04:47:14;28.85;;;5.80;;
20794;SDS011;28087;-33.874;151.240;2024-02-14T04:50:20;34.80;;;6.28;;
20794;SDS011;28087;-33.874;151.240;2024-02-14T04:53:27;26.50;;;5.15;;
20794;SDS011;28087;-33.874;151.240;2024-02-14T04:56:34;33.83;;;5.72;;
20794;SDS011;28087;-33.874;151.240;2024-02-14T04:59:46;30.88;;;5.38;;
20794;SDS011;28087;-33.874;151.240;2024-02-14T05:02:59;28.30;;;5.45;;
20794;SDS011;28087;-33.874;151.240;2024-02-14T05:06:06;34.75;;;6.55;;
20794;SDS011;28087;-33.874;151.240;2024-02-14T05:09:15;31.42;;;5.40;;
20794;SDS011;28087;-33.874;151.240;2024-02-14T05:12:20;33.70;;;5.65;;
20794;SDS011;28087;-33.874;151.240;2024-02-14T05:15:27;30.55;;;5.47;;
20794;SDS011;28087;-33.874;151.240;2024-02-14T05:18:36;30.63;;;5.25;;
20794;SDS011;28087;-33.874;151.240;2024-02-14T05:21:43;32.20;;;5.85;;
20794;SDS011;28087;-33.874;151.240;2024-02-14T05:24:50;31.42;;;4.80;;
20794;SDS011;28087;-33.874;151.240;2024-02-14T05:28:05;30.70;;;4.80;;
20794;SDS011;28087;-33.874;151.240;2024-02-14T05:31:13;32.95;;;5.43;;
20794;SDS011;28087;-33.874;151.240;2024-02-14T05:34:22;34.75;;;5.28;;
20794;SDS011;28087;-33.874;151.240;2024-02-14T05:37:29;29.02;;;5.05;;
20794;SDS011;28087;-33.874;151.240;2024-02-14T05:40:35;31.05;;;5.60;;
20794;SDS011;28087;-33.874;151.240;2024-02-14T05:43:41;34.10;;;5.22;;
20794;SDS011;28087;-33.874;151.240;2024-02-14T05:46:48;35.58;;;5.63;;
20794;SDS011;28087;-33.874;151.240;2024-02-14T05:49:57;27.33;;;4.65;;
20794;SDS011;28087;-33.874;151.240;2024-02-14T05:53:05;36.17;;;5.22;;
20794;SDS011;28087;-33.874;151.240;2024-02-14T05:56:10;27.08;;;5.15;;
20794;SDS011;28087;-33.874;151.240;2024-02-14T05:59:19;30.90;;;5.00;;
20794;SDS011;28087;-33.874;151.240;2024-02-14T06:02:26;37.72;;;5.80;;
20794;SDS011;28087;-33.874;151.240;2024-02-14T06:05:33;30.73;;;5.03;;
20794;SDS011;28087;-33.874;151.240;2024-02-14T06:08:40;31.77;;;5.22;;
20794;SDS011;28087;-33.874;151.240;2024-02-14T06:11:46;27.15;;;4.80;;
20794;SDS011;28087;-33.874;151.240;2024-02-14T06:14:53;27.40;;;5.15;;
20794;SDS011;28087;-33.874;151.240;2024-02-14T06:18:01;26.85;;;5.13;;
20794;SDS011;28087;-33.874;151.240;2024-02-14T06:21:14;27.27;;;5.38;;
20794;SDS011;28087;-33.874;151.240;2024-02-14T06:24:25;26.23;;;4.72;;
20794;SDS011;28087;-33.874;151.240;2024-02-14T06:27:32;22.85;;;4.95;;
20794;SDS011;28087;-33.874;151.240;2024-02-14T06:30:38;27.98;;;4.50;;
20794;SDS011;28087;-33.874;151.240;2024-02-14T06:33:45;26.15;;;4.70;;
20794;SDS011;28087;-33.874;151.240;2024-02-14T06:36:54;27.10;;;4.45;;
20794;SDS011;28087;-33.874;151.240;2024-02-14T06:40:00;27.38;;;4.82;;
20794;SDS011;28087;-33.874;151.240;2024-02-14T06:43:06;21.23;;;4.50;;
20794;SDS011;28087;-33.874;151.240;2024-02-14T06:46:13;20.85;;;4.40;;
20794;SDS011;28087;-33.874;151.240;2024-02-14T06:49:19;31.50;;;4.53;;
20794;SDS011;28087;-33.874;151.240;2024-02-14T06:52:27;23.95;;;4.18;;
20794;SDS011;28087;-33.874;151.240;2024-02-14T06:55:33;22.42;;;4.18;;
20794;SDS011;28087;-33.874;151.240;2024-02-14T06:58:41;25.08;;;3.80;;
20794;SDS011;28087;-33.874;151.240;2024-02-14T07:01:50;20.40;;;4.53;;
20794;SDS011;28087;-33.874;151.240;2024-02-14T07:05:00;20.73;;;4.30;;
20794;SDS011;28087;-33.874;151.240;2024-02-14T07:08:11;27.73;;;4.47;;
20794;SDS011;28087;-33.874;151.240;2024-02-14T07:11:17;23.38;;;4.53;;
20794;SDS011;28087;-33.874;151.240;2024-02-14T07:14:24;26.50;;;4.30;;
20794;SDS011;28087;-33.874;151.240;2024-02-14T07:17:30;23.25;;;4.07;;
20794;SDS011;28087;-33.874;151.240;2024-02-14T07:20:38;24.23;;;4.30;;
20794;SDS011;28087;-33.874;151.240;2024-02-14T07:23:40;20.42;;;3.65;;
20794;SDS011;28087;-33.874;151.240;2024-02-14T07:26:43;18.30;;;3.80;;
20794;SDS011;28087;-33.874;151.240;2024-02-14T07:29:50;19.67;;;3.85;;
20794;SDS011;28087;-33.874;151.240;2024-02-14T07:32:59;20.08;;;4.07;;
20794;SDS011;28087;-33.874;151.240;2024-02-14T07:36:07;17.13;;;4.22;;
20794;SDS011;28087;-33.874;151.240;2024-02-14T07:39:14;18.90;;;4.38;;
20794;SDS011;28087;-33.874;151.240;2024-02-14T07:42:20;16.50;;;3.40;;
20794;SDS011;28087;-33.874;151.240;2024-02-14T07:45:27;15.32;;;3.30;;
20794;SDS011;28087;-33.874;151.240;2024-02-14T07:48:34;13.70;;;3.05;;
20794;SDS011;28087;-33.874;151.240;2024-02-14T07:51:41;18.73;;;3.75;;
20794;SDS011;28087;-33.874;151.240;2024-02-14T07:54:50;14.98;;;3.10;;
20794;SDS011;28087;-33.874;151.240;2024-02-14T07:57:57;17.63;;;3.53;;
20794;SDS011;28087;-33.874;151.240;2024-02-14T08:01:04;17.67;;;3.75;;
20794;SDS011;28087;-33.874;151.240;2024-02-14T08:04:10;18.67;;;3.45;;
20794;SDS011;28087;-33.874;151.240;2024-02-14T08:07:17;20.15;;;4.80;;
20794;SDS011;28087;-33.874;151.240;2024-02-14T08:10:24;15.25;;;4.03;;
20794;SDS011;28087;-33.874;151.240;2024-02-14T08:13:31;13.35;;;3.20;;
20794;SDS011;28087;-33.874;151.240;2024-02-14T08:16:37;8.43;;;2.10;;
20794;SDS011;28087;-33.874;151.240;2024-02-14T08:19:44;13.40;;;3.15;;
20794;SDS011;28087;-33.874;151.240;2024-02-14T08:23:00;15.52;;;2.88;;
20794;SDS011;28087;-33.874;151.240;2024-02-14T08:26:08;11.15;;;2.85;;
20794;SDS011;28087;-33.874;151.240;2024-02-14T08:29:14;9.38;;;2.05;;
20794;SDS011;28087;-33.874;151.240;2024-02-14T08:32:22;10.57;;;2.47;;
20794;SDS011;28087;-33.874;151.240;2024-02-14T08:35:29;11.85;;;2.30;;
20794;SDS011;28087;-33.874;151.240;2024-02-14T08:38:36;13.65;;;2.92;;
20794;SDS011;28087;-33.874;151.240;2024-02-14T08:41:45;12.43;;;2.08;;
20794;SDS011;28087;-33.874;151.240;2024-02-14T08:44:52;14.65;;;2.70;;
20794;SDS011;28087;-33.874;151.240;2024-02-14T08:48:00;11.55;;;2.80;;
20794;SDS011;28087;-33.874;151.240;2024-02-14T08:51:06;11.18;;;2.50;;
20794;SDS011;28087;-33.874;151.240;2024-02-14T08:54:12;9.80;;;2.17;;
20794;SDS011;28087;-33.874;151.240;2024-02-14T08:57:20;12.57;;;2.55;;
20794;SDS011;28087;-33.874;151.240;2024-02-14T09:00:28;11.32;;;2.15;;
20794;SDS011;28087;-33.874;151.240;2024-02-14T09:03:36;12.35;;;2.22;;
20794;SDS011;28087;-33.874;151.240;2024-02-14T09:06:44;10.18;;;2.42;;
20794;SDS011;28087;-33.874;151.240;2024-02-14T09:09:51;12.70;;;2.83;;
20794;SDS011;28087;-33.874;151.240;2024-02-14T09:12:58;10.65;;;2.70;;
20794;SDS011;28087;-33.874;151.240;2024-02-14T09:16:05;15.80;;;3.00;;
20794;SDS011;28087;-33.874;151.240;2024-02-14T09:19:12;10.32;;;2.53;;
20794;SDS011;28087;-33.874;151.240;2024-02-14T09:22:19;11.50;;;2.35;;
20794;SDS011;28087;-33.874;151.240;2024-02-14T09:25:26;11.27;;;2.45;;
20794;SDS011;28087;-33.874;151.240;2024-02-14T09:28:35;8.68;;;2.25;;
20794;SDS011;28087;-33.874;151.240;2024-02-14T09:31:42;9.82;;;2.40;;
20794;SDS011;28087;-33.874;151.240;2024-02-14T09:34:49;8.00;;;1.63;;
20794;SDS011;28087;-33.874;151.240;2024-02-14T09:37:57;8.13;;;1.90;;
20794;SDS011;28087;-33.874;151.240;2024-02-14T09:41:05;11.70;;;2.35;;
20794;SDS011;28087;-33.874;151.240;2024-02-14T09:44:13;10.30;;;2.20;;
20794;SDS011;28087;-33.874;151.240;2024-02-14T09:47:14;12.82;;;2.22;;
20794;SDS011;28087;-33.874;151.240;2024-02-14T09:50:21;10.48;;;2.17;;
20794;SDS011;28087;-33.874;151.240;2024-02-14T09:53:28;13.10;;;2.13;;
20794;SDS011;28087;-33.874;151.240;2024-02-14T09:56:36;13.60;;;2.40;;
20794;SDS011;28087;-33.874;151.240;2024-02-14T09:59:44;10.63;;;2.17;;
20794;SDS011;28087;-33.874;151.240;2024-02-14T10:02:51;8.20;;;2.10;;
20794;SDS011;28087;-33.874;151.240;2024-02-14T10:05:58;12.55;;;2.30;;
20794;SDS011;28087;-33.874;151.240;2024-02-14T10:09:10;11.10;;;1.77;;
20794;SDS011;28087;-33.874;151.240;2024-02-14T10:12:20;10.70;;;2.20;;
20794;SDS011;28087;-33.874;151.240;2024-02-14T10:15:28;16.05;;;2.70;;
20794;SDS011;28087;-33.874;151.240;2024-02-14T10:18:35;11.40;;;2.83;;
20794;SDS011;28087;-33.874;151.240;2024-02-14T10:21:42;11.93;;;2.75;;
20794;SDS011;28087;-33.874;151.240;2024-02-14T10:24:49;11.43;;;2.40;;
20794;SDS011;28087;-33.874;151.240;2024-02-14T10:27:55;11.90;;;2.30;;
20794;SDS011;28087;-33.874;151.240;2024-02-14T10:31:05;13.98;;;2.45;;
20794;SDS011;28087;-33.874;151.240;2024-02-14T10:34:14;10.32;;;2.13;;
20794;SDS011;28087;-33.874;151.240;2024-02-14T10:37:21;10.95;;;2.40;;
20794;SDS011;28087;-33.874;151.240;2024-02-14T10:40:30;12.73;;;2.70;;
20794;SDS011;28087;-33.874;151.240;2024-02-14T10:43:40;11.75;;;2.53;;
20794;SDS011;28087;-33.874;151.240;2024-02-14T10:46:49;14.18;;;2.50;;
20794;SDS011;28087;-33.874;151.240;2024-02-14T10:49:58;15.90;;;3.40;;
20794;SDS011;28087;-33.874;151.240;2024-02-14T10:53:07;15.50;;;3.35;;
20794;SDS011;28087;-33.874;151.240;2024-02-14T10:56:16;14.77;;;2.88;;
20794;SDS011;28087;-33.874;151.240;2024-02-14T10:59:25;15.38;;;2.88;;
20794;SDS011;28087;-33.874;151.240;2024-02-14T11:02:37;14.10;;;3.00;;
20794;SDS011;28087;-33.874;151.240;2024-02-14T11:05:44;13.27;;;3.75;;
20794;SDS011;28087;-33.874;151.240;2024-02-14T11:09:00;16.40;;;3.20;;
20794;SDS011;28087;-33.874;151.240;2024-02-14T11:12:10;12.63;;;2.80;;
20794;SDS011;28087;-33.874;151.240;2024-02-14T11:15:16;15.38;;;2.70;;
20794;SDS011;28087;-33.874;151.240;2024-02-14T11:18:28;15.30;;;2.92;;
20794;SDS011;28087;-33.874;151.240;2024-02-14T11:21:39;15.27;;;3.13;;
20794;SDS011;28087;-33.874;151.240;2024-02-14T11:24:50;20.52;;;3.15;;
20794;SDS011;28087;-33.874;151.240;2024-02-14T11:27:56;15.43;;;2.85;;
20794;SDS011;28087;-33.874;151.240;2024-02-14T11:31:02;15.63;;;2.67;;
20794;SDS011;28087;-33.874;151.240;2024-02-14T11:34:11;16.02;;;3.00;;
20794;SDS011;28087;-33.874;151.240;2024-02-14T11:37:20;14.35;;;3.08;;
20794;SDS011;28087;-33.874;151.240;2024-02-14T11:40:27;14.38;;;2.80;;
20794;SDS011;28087;-33.874;151.240;2024-02-14T11:43:34;11.82;;;2.50;;
20794;SDS011;28087;-33.874;151.240;2024-02-14T11:46:40;15.70;;;2.78;;
20794;SDS011;28087;-33.874;151.240;2024-02-14T11:49:50;13.88;;;2.63;;
20794;SDS011;28087;-33.874;151.240;2024-02-14T11:52:58;16.08;;;3.13;;
20794;SDS011;28087;-33.874;151.240;2024-02-14T11:56:07;17.15;;;3.00;;
20794;SDS011;28087;-33.874;151.240;2024-02-14T11:59:15;13.32;;;2.72;;
20794;SDS011;28087;-33.874;151.240;2024-02-14T12:02:24;14.15;;;2.92;;
20794;SDS011;28087;-33.874;151.240;2024-02-14T12:05:33;16.77;;;3.00;;
20794;SDS011;28087;-33.874;151.240;2024-02-14T12:08:41;13.27;;;3.00;;
20794;SDS011;28087;-33.874;151.240;2024-02-14T12:11:53;18.00;;;3.47;;
20794;SDS011;28087;-33.874;151.240;2024-02-14T12:15:01;17.67;;;3.20;;
20794;SDS011;28087;-33.874;151.240;2024-02-14T12:18:10;16.98;;;2.85;;
20794;SDS011;28087;-33.874;151.240;2024-02-14T12:21:21;14.77;;;2.97;;
20794;SDS011;28087;-33.874;151.240;2024-02-14T12:24:26;17.08;;;3.40;;
20794;SDS011;28087;-33.874;151.240;2024-02-14T12:27:33;27.27;;;3.65;;
20794;SDS011;28087;-33.874;151.240;2024-02-14T12:30:45;23.33;;;4.30;;
20794;SDS011;28087;-33.874;151.240;2024-02-14T12:33:53;20.40;;;3.65;;
20794;SDS011;28087;-33.874;151.240;2024-02-14T12:37:03;21.27;;;3.67;;
20794;SDS011;28087;-33.874;151.240;2024-02-14T12:40:10;18.52;;;3.78;;
20794;SDS011;28087;-33.874;151.240;2024-02-14T12:43:16;21.50;;;3.88;;
20794;SDS011;28087;-33.874;151.240;2024-02-14T12:46:22;16.48;;;3.00;;
20794;SDS011;28087;-33.874;151.240;2024-02-14T12:49:28;21.10;;;3.47;;
20794;SDS011;28087;-33.874;151.240;2024-02-14T12:52:37;24.58;;;3.80;;
20794;SDS011;28087;-33.874;151.240;2024-02-14T12:55:45;22.10;;;4.45;;
20794;SDS011;28087;-33.874;151.240;2024-02-14T12:58:52;18.25;;;3.55;;
20794;SDS011;28087;-33.874;151.240;2024-02-14T13:02:00;20.08;;;3.85;;
20794;SDS011;28087;-33.874;151.240;2024-02-14T13:05:07;15.00;;;3.35;;
20794;SDS011;28087;-33.874;151.240;2024-02-14T13:08:15;16.13;;;3.35;;
20794;SDS011;28087;-33.874;151.240;2024-02-14T13:11:23;16.48;;;3.30;;
20794;SDS011;28087;-33.874;151.240;2024-02-14T13:14:29;21.15;;;3.85;;
20794;SDS011;28087;-33.874;151.240;2024-02-14T13:17:35;18.88;;;3.58;;
20794;SDS011;28087;-33.874;151.240;2024-02-14T13:20:42;13.60;;;2.75;;
20794;SDS011;28087;-33.874;151.240;2024-02-14T13:23:58;18.17;;;4.00;;
20794;SDS011;28087;-33.874;151.240;2024-02-14T13:27:05;14.23;;;2.92;;
20794;SDS011;28087;-33.874;151.240;2024-02-14T13:30:12;17.63;;;3.25;;
20794;SDS011;28087;-33.874;151.240;2024-02-14T13:33:18;20.98;;;3.65;;
20794;SDS011;28087;-33.874;151.240;2024-02-14T13:36:25;19.77;;;3.90;;
20794;SDS011;28087;-33.874;151.240;2024-02-14T13:39:33;21.35;;;3.55;;
20794;SDS011;28087;-33.874;151.240;2024-02-14T13:42:39;19.35;;;3.70;;
20794;SDS011;28087;-33.874;151.240;2024-02-14T13:45:45;15.50;;;3.42;;
20794;SDS011;28087;-33.874;151.240;2024-02-14T13:48:52;13.75;;;3.08;;
20794;SDS011;28087;-33.874;151.240;2024-02-14T13:52:02;16.08;;;3.40;;
20794;SDS011;28087;-33.874;151.240;2024-02-14T13:55:11;16.42;;;3.95;;
20794;SDS011;28087;-33.874;151.240;2024-02-14T13:58:17;13.88;;;3.40;;
20794;SDS011;28087;-33.874;151.240;2024-02-14T14:01:24;13.63;;;3.20;;
20794;SDS011;28087;-33.874;151.240;2024-02-14T14:04:32;24.52;;;3.58;;
20794;SDS011;28087;-33.874;151.240;2024-02-14T14:07:33;13.75;;;2.60;;
20794;SDS011;28087;-33.874;151.240;2024-02-14T14:10:47;21.48;;;3.97;;
20794;SDS011;28087;-33.874;151.240;2024-02-14T14:13:53;18.85;;;3.45;;
20794;SDS011;28087;-33.874;151.240;2024-02-14T14:17:00;16.92;;;3.33;;
20794;SDS011;28087;-33.874;151.240;2024-02-14T14:20:07;13.50;;;2.95;;
20794;SDS011;28087;-33.874;151.240;2024-02-14T14:23:16;13.93;;;2.83;;
20794;SDS011;28087;-33.874;151.240;2024-02-14T14:26:25;11.38;;;3.03;;
20794;SDS011;28087;-33.874;151.240;2024-02-14T14:29:33;17.80;;;3.50;;
20794;SDS011;28087;-33.874;151.240;2024-02-14T14:32:41;15.57;;;3.45;;
20794;SDS011;28087;-33.874;151.240;2024-02-14T14:35:49;20.27;;;3.35;;
20794;SDS011;28087;-33.874;151.240;2024-02-14T14:38:56;14.98;;;3.10;;
20794;SDS011;28087;-33.874;151.240;2024-02-14T14:42:04;17.30;;;3.30;;
20794;SDS011;28087;-33.874;151.240;2024-02-14T14:45:10;17.20;;;3.25;;
20794;SDS011;28087;-33.874;151.240;2024-02-14T14:48:16;16.60;;;3.05;;
20794;SDS011;28087;-33.874;151.240;2024-02-14T14:51:24;14.13;;;3.00;;
20794;SDS011;28087;-33.874;151.240;2024-02-14T14:54:31;14.07;;;2.83;;
20794;SDS011;28087;-33.874;151.240;2024-02-14T14:57:41;13.55;;;3.30;;
20794;SDS011;28087;-33.874;151.240;2024-02-14T15:00:48;16.67;;;3.30;;
20794;SDS011;28087;-33.874;151.240;2024-02-14T15:03:55;18.52;;;3.40;;
20794;SDS011;28087;-33.874;151.240;2024-02-14T15:07:06;16.58;;;2.95;;
20794;SDS011;28087;-33.874;151.240;2024-02-14T15:10:07;13.25;;;2.72;;
20794;SDS011;28087;-33.874;151.240;2024-02-14T15:13:12;16.77;;;3.22;;
20794;SDS011;28087;-33.874;151.240;2024-02-14T15:16:19;15.77;;;2.85;;
20794;SDS011;28087;-33.874;151.240;2024-02-14T15:19:27;10.60;;;2.75;;
20794;SDS011;28087;-33.874;151.240;2024-02-14T15:22:35;17.50;;;3.20;;
20794;SDS011;28087;-33.874;151.240;2024-02-14T15:25:42;16.83;;;2.78;;
20794;SDS011;28087;-33.874;151.240;2024-02-14T15:28:53;14.70;;;3.20;;
20794;SDS011;28087;-33.874;151.240;2024-02-14T15:32:15;14.45;;;2.90;;
20794;SDS011;28087;-33.874;151.240;2024-02-14T15:35:39;16.17;;;3.28;;
20794;SDS011;28087;-33.874;151.240;2024-02-14T15:38:46;18.27;;;3.78;;
20794;SDS011;28087;-33.874;151.240;2024-02-14T15:41:53;9.88;;;2.60;;
20794;SDS011;28087;-33.874;151.240;2024-02-14T15:45:01;8.55;;;2.25;;
20794;SDS011;28087;-33.874;151.240;2024-02-14T15:48:13;12.40;;;2.70;;
20794;SDS011;28087;-33.874;151.240;2024-02-14T15:51:21;17.70;;;2.78;;
20794;SDS011;28087;-33.874;151.240;2024-02-14T15:54:27;15.50;;;2.85;;
20794;SDS011;28087;-33.874;151.240;2024-02-14T15:57:33;19.73;;;3.58;;
20794;SDS011;28087;-33.874;151.240;2024-02-14T16:00:41;14.27;;;3.03;;
20794;SDS011;28087;-33.874;151.240;2024-02-14T16:03:46;13.35;;;2.60;;
20794;SDS011;28087;-33.874;151.240;2024-02-14T16:06:52;11.98;;;2.97;;
20794;SDS011;28087;-33.874;151.240;2024-02-14T16:09:58;12.55;;;2.50;;
20794;SDS011;28087;-33.874;151.240;2024-02-14T16:13:05;9.38;;;2.28;;
20794;SDS011;28087;-33.874;151.240;2024-02-14T16:16:14;11.85;;;2.85;;
20794;SDS011;28087;-33.874;151.240;2024-02-14T16:19:20;17.27;;;3.38;;
20794;SDS011;28087;-33.874;151.240;2024-02-14T16:22:20;16.75;;;3.70;;
20794;SDS011;28087;-33.874;151.240;2024-02-14T16:25:21;13.20;;;2.65;;
20794;SDS011;28087;-33.874;151.240;2024-02-14T16:28:29;12.32;;;2.22;;
20794;SDS011;28087;-33.874;151.240;2024-02-14T16:31:37;22.35;;;3.03;;
20794;SDS011;28087;-33.874;151.240;2024-02-14T16:34:44;19.33;;;3.25;;
20794;SDS011;28087;-33.874;151.240;2024-02-14T16:37:50;19.10;;;3.03;;
20794;SDS011;28087;-33.874;151.240;2024-02-14T16:40:56;9.25;;;2.53;;
20794;SDS011;28087;-33.874;151.240;2024-02-14T16:44:02;17.60;;;3.15;;
20794;SDS011;28087;-33.874;151.240;2024-02-14T16:47:10;15.95;;;3.08;;
20794;SDS011;28087;-33.874;151.240;2024-02-14T16:50:17;15.48;;;3.20;;
20794;SDS011;28087;-33.874;151.240;2024-02-14T16:53:26;10.32;;;2.55;;
20794;SDS011;28087;-33.874;151.240;2024-02-14T16:56:33;14.32;;;2.85;;
20794;SDS011;28087;-33.874;151.240;2024-02-14T16:59:39;15.30;;;2.85;;
20794;SDS011;28087;-33.874;151.240;2024-02-14T17:02:49;18.77;;;3.15;;
20794;SDS011;28087;-33.874;151.240;2024-02-14T17:06:04;14.82;;;2.50;;
20794;SDS011;28087;-33.874;151.240;2024-02-14T17:09:14;16.95;;;3.00;;
20794;SDS011;28087;-33.874;151.240;2024-02-14T17:12:22;8.85;;;2.45;;
20794;SDS011;28087;-33.874;151.240;2024-02-14T17:15:28;12.07;;;2.45;;
20794;SDS011;28087;-33.874;151.240;2024-02-14T17:18:38;12.98;;;2.30;;
20794;SDS011;28087;-33.874;151.240;2024-02-14T17:21:46;13.27;;;2.50;;
20794;SDS011;28087;-33.874;151.240;2024-02-14T17:25:05;13.63;;;2.65;;
20794;SDS011;28087;-33.874;151.240;2024-02-14T17:28:13;13.50;;;2.88;;
20794;SDS011;28087;-33.874;151.240;2024-02-14T17:31:20;20.95;;;3.25;;
20794;SDS011;28087;-33.874;151.240;2024-02-14T17:34:30;12.73;;;2.38;;
20794;SDS011;28087;-33.874;151.240;2024-02-14T17:37:37;17.38;;;2.85;;
20794;SDS011;28087;-33.874;151.240;2024-02-14T17:40:43;11.38;;;2.38;;
20794;SDS011;28087;-33.874;151.240;2024-02-14T17:43:49;12.48;;;2.83;;
20794;SDS011;28087;-33.874;151.240;2024-02-14T17:46:57;14.80;;;2.78;;
20794;SDS011;28087;-33.874;151.240;2024-02-14T17:50:05;18.42;;;3.47;;
20794;SDS011;28087;-33.874;151.240;2024-02-14T17:53:12;13.90;;;2.55;;